Accueil
METAR-TAF:

METAR-TAF

Aéroports :

Aéroport international Sir-Seewoosagur-Ramgoolam

Maurice, Maurice

latitude: 20-26S, longitude: 057-40E, altitude: 55 m

Observation

Le bulletin a été fait il y a 58 minutes, à 12:00 UTC
Vent 8 kt de est
Température 30°C
Humidité 62%
Pression 1013 hPa
Visibilité 10 km ou plus
Quelques nuages à une hauteur de 1600 ft
Nuages épars à une hauteur de 5000 ft
averses à proximité

METAR: FIMP 231200Z 08008KT 9999 VCSH FEW016 SCT050 30/22 Q1013

Heure: 16:58 (12:58 UTC)

Prévision

Le bulletin a été fait il y a 1 heure et 28 minutes, à 11:30 UTC
Prévision valable du 23 à 12 UTC au 24 à 18 UTC
Vent 8 kt de est/nord-est
Visibilité 10 km ou plus
Nuages épars à une hauteur de 1500 ft
Temporairement
du 23 à 18 UTC au 24 à 02 UTC
Vent 3 kt de direction variable

TAF: FIMP 231130Z 2312/2418 06008KT 9999 SCT015 TEMPO 2318/2402 VRB03KT

Observations et prévisions météorologiques de plus de 4000 aéroports (messages METAR et TAF).

Les stations disponibles sont représentées par des disques jaunes et rouges sur la carte.

Passer la souris dessus pour voir le nom de la station.

Cliquer dessus pour voir les observations et prévisions météorologiques.

Pour changer de carte: cliquez sur les boutons verts avec une croix noire pour zoomer, sur le bouton vert avec un tiret pour effectuer un zoom arrière, ou sur les flèches vertes pour les cartes adjacentes.


METAR-TAF: